Time;durP1;ratioP1;P1;durP2;ratioP2;P2;SDS_P1;SDS_P2;PMS_P1;PMS_P2;Temp;Humidity;BMP_temperature;BMP_pressure;BME280_temperature;BME280_humidity;BME280_pressure;Samples;Min_cycle;Max_cycle;Signal;HPM_P1;HPM_P2
2021/12/02 00:01:15;;;;;;;9.23;1.55;;;3.70;99.90;;;;;;5153894;27;20110;-61
2021/12/02 00:03:42;;;;;;;9.63;1.40;;;3.80;99.90;;;;;;5154112;27;20038;-61
2021/12/02 00:06:10;;;;;;;14.75;2.17;;;3.90;99.90;;;;;;5154044;27;20098;-61
2021/12/02 00:08:37;;;;;;;8.13;1.30;;;3.90;99.90;;;;;;5153711;27;20485;-62
2021/12/02 00:11:03;;;;;;;5.22;1.08;;;3.90;99.90;;;;;;5153789;27;20039;-62
2021/12/02 00:13:36;;;;;;;7.93;1.88;;;3.90;99.90;;;;;;5154029;27;20046;-61
2021/12/02 00:16:21;;;;;;;5.45;1.35;;;3.90;99.90;;;;;;5153976;27;20034;-62
2021/12/02 00:21:20;;;;;;;6.32;1.40;;;3.90;99.90;;;;;;5153926;27;20039;-62
2021/12/02 00:23:52;;;;;;;9.32;1.60;;;3.80;99.90;;;;;;5158155;27;20034;-62
2021/12/02 00:26:20;;;;;;;13.27;2.63;;;3.70;99.90;;;;;;5157893;27;20038;-62
2021/12/02 00:28:55;;;;;;;9.43;1.13;;;3.60;99.90;;;;;;5157886;27;20035;-61
2021/12/02 00:31:24;;;;;;;8.93;1.42;;;3.60;99.90;;;;;;5158208;27;20046;-63
2021/12/02 00:36:51;;;;;;;12.40;1.55;;;4.00;99.90;;;;;;4378749;26;20070;-54
2021/12/02 00:39:35;;;;;;;7.37;1.20;;;3.90;99.90;;;;;;5038354;28;20046;-53
2021/12/02 00:42:01;;;;;;;9.25;1.27;;;3.80;99.90;;;;;;5037370;28;20100;-54
2021/12/02 00:44:31;;;;;;;6.10;1.00;;;3.70;99.90;;;;;;5040173;28;20057;-55
2021/12/02 00:47:01;;;;;;;5.82;1.05;;;3.60;99.90;;;;;;5041904;28;20075;-52
2021/12/02 00:49:27;;;;;;;6.03;0.93;;;3.50;99.90;;;;;;5042031;28;20061;-53
2021/12/02 00:51:56;;;;;;;5.97;0.82;;;3.50;99.90;;;;;;5042076;28;20033;-52
2021/12/02 00:54:25;;;;;;;2.28;0.70;;;3.40;99.90;;;;;;5041781;28;20073;-56
2021/12/02 00:56:52;;;;;;;3.03;0.77;;;3.40;99.90;;;;;;5042004;28;20084;-53
2021/12/02 00:59:20;;;;;;;4.40;0.90;;;3.40;99.90;;;;;;5041723;28;20156;-53
2021/12/02 01:01:48;;;;;;;5.03;1.17;;;3.50;99.90;;;;;;5025138;28;20050;-52
2021/12/02 01:04:21;;;;;;;3.65;0.80;;;3.70;99.90;;;;;;5041684;28;20045;-52
2021/12/02 01:06:47;;;;;;;5.55;1.00;;;3.70;99.90;;;;;;5025303;28;20037;-54
2021/12/02 01:09:13;;;;;;;7.07;2.10;;;3.60;99.90;;;;;;5046197;28;20053;-54
2021/12/02 01:11:40;;;;;;;6.85;1.02;;;3.60;99.90;;;;;;5084124;28;20451;-55
2021/12/02 01:14:07;;;;;;;5.80;1.00;;;3.40;99.90;;;;;;5083851;28;20056;-53
2021/12/02 01:16:33;;;;;;;5.28;1.10;;;3.20;99.90;;;;;;5084100;28;20142;-51
2021/12/02 01:18:59;;;;;;;5.25;0.98;;;3.20;99.90;;;;;;5103781;28;20036;-52
2021/12/02 01:21:28;;;;;;;6.05;1.15;;;3.10;99.90;;;;;;5104550;28;20786;-54
2021/12/02 01:24:03;;;;;;;7.53;1.10;;;3.10;99.90;;;;;;5104226;28;20048;-52
2021/12/02 01:26:31;;;;;;;7.70;1.95;;;3.10;99.90;;;;;;5104217;28;20055;-53
2021/12/02 01:28:58;;;;;;;6.10;0.98;;;3.20;99.90;;;;;;5104074;28;20040;-52
2021/12/02 01:31:32;;;;;;;6.90;1.10;;;3.20;99.90;;;;;;5102636;28;20035;-51
2021/12/02 01:34:06;;;;;;;12.65;3.08;;;3.30;99.90;;;;;;5103331;28;20054;-50
2021/12/02 01:36:38;;;;;;;9.27;1.35;;;3.30;99.90;;;;;;5104035;28;20051;-54
2021/12/02 01:39:06;;;;;;;6.60;1.13;;;3.20;99.90;;;;;;5104007;28;20048;-53
2021/12/02 01:41:37;;;;;;;9.40;1.15;;;3.30;99.90;;;;;;5104093;28;20036;-53
2021/12/02 01:44:10;;;;;;;3.90;1.00;;;3.20;99.90;;;;;;5103781;28;20063;-53
2021/12/02 01:46:38;;;;;;;8.48;1.27;;;3.30;99.90;;;;;;5103800;28;20051;-54
2021/12/02 01:49:04;;;;;;;11.20;1.38;;;3.30;99.90;;;;;;5103803;28;20103;-53
2021/12/02 01:51:48;;;;;;;9.65;1.60;;;3.30;99.90;;;;;;5097672;28;20094;-53
2021/12/02 01:54:19;;;;;;;6.75;1.60;;;3.20;99.90;;;;;;5083323;28;20047;-52
2021/12/02 01:56:46;;;;;;;11.32;1.40;;;3.10;99.90;;;;;;5083443;28;20051;-53
2021/12/02 01:59:15;;;;;;;11.00;1.50;;;3.10;99.90;;;;;;5082368;28;20047;-52
2021/12/02 02:01:43;;;;;;;9.68;1.45;;;3.00;99.90;;;;;;5082192;28;20147;-51
2021/12/02 02:04:09;;;;;;;7.03;1.40;;;3.00;99.90;;;;;;5082030;28;20041;-50
2021/12/02 02:06:44;;;;;;;8.75;1.80;;;3.00;99.90;;;;;;5082507;28;20044;-51
2021/12/02 02:09:11;;;;;;;6.18;1.10;;;3.00;99.90;;;;;;5081716;28;20052;-50
2021/12/02 02:11:37;;;;;;;5.93;1.60;;;3.00;99.90;;;;;;5082514;28;20052;-49
2021/12/02 02:14:06;;;;;;;13.20;1.90;;;3.10;99.90;;;;;;5081542;28;20062;-52
2021/12/02 02:16:32;;;;;;;12.25;2.85;;;3.00;99.90;;;;;;5082064;28;20056;-53
2021/12/02 02:18:58;;;;;;;8.25;1.38;;;3.00;99.90;;;;;;5082225;28;20037;-53
2021/12/02 02:21:24;;;;;;;12.27;2.47;;;3.00;99.90;;;;;;5081446;28;20040;-52
2021/12/02 02:23:58;;;;;;;11.23;1.33;;;3.00;99.90;;;;;;5082141;28;20037;-53
2021/12/02 02:26:31;;;;;;;6.28;1.35;;;3.10;99.90;;;;;;5081264;28;20724;-53
2021/12/02 02:28:58;;;;;;;11.82;1.20;;;2.90;99.90;;;;;;5082079;28;20045;-50
2021/12/02 02:31:27;;;;;;;5.78;1.05;;;2.80;99.90;;;;;;5080162;28;20048;-52
2021/12/02 02:33:53;;;;;;;4.93;0.90;;;2.90;99.90;;;;;;5081475;28;20044;-53
2021/12/02 02:36:23;;;;;;;6.22;1.00;;;2.90;99.90;;;;;;5080348;28;20045;-52
2021/12/02 02:38:59;;;;;;;5.07;0.88;;;2.90;99.90;;;;;;5081511;28;20048;-49
2021/12/02 02:41:41;;;;;;;8.82;1.50;;;2.80;99.90;;;;;;5081676;28;20104;-50
2021/12/02 02:44:08;;;;;;;6.78;1.15;;;2.80;99.90;;;;;;5080648;28;20045;-52
2021/12/02 02:46:39;;;;;;;4.90;0.98;;;2.90;99.90;;;;;;5081230;28;20041;-53
2021/12/02 02:49:07;;;;;;;3.53;1.42;;;2.90;99.90;;;;;;5081501;28;20036;-51
2021/12/02 02:51:36;;;;;;;5.18;1.05;;;3.00;99.90;;;;;;5087712;28;20181;-52
2021/12/02 02:54:05;;;;;;;4.82;0.93;;;3.00;99.90;;;;;;5100581;28;20048;-54
2021/12/02 02:56:35;;;;;;;4.35;0.85;;;2.90;99.90;;;;;;5100936;28;20495;-53
2021/12/02 02:59:19;;;;;;;2.25;0.90;;;2.90;99.90;;;;;;5101728;28;20044;-53
2021/12/02 03:01:59;;;;;;;3.00;0.60;;;2.80;99.90;;;;;;5101371;28;20094;-52
2021/12/02 03:07:08;;;;;;;2.80;0.80;;;2.60;99.90;;;;;;5101645;28;20077;-54
2021/12/02 03:12:21;;;;;;;3.60;0.68;;;2.30;99.90;;;;;;5101453;28;20126;-54
2021/12/02 03:16:37;;;;;;;3.53;0.60;;;2.20;99.90;;;;;;5101165;28;20044;-51
2021/12/02 03:17:38;;;;;;;0.85;0.50;;;2.10;99.90;;;;;;5100796;28;20422;-53
2021/12/02 03:20:04;;;;;;;3.42;1.17;;;2.00;99.90;;;;;;5101166;28;20058;-54
2021/12/02 03:22:32;;;;;;;4.45;0.73;;;2.00;99.90;;;;;;5099231;28;20154;-52
2021/12/02 03:24:58;;;;;;;0.70;0.50;;;2.10;99.90;;;;;;5101161;28;20101;-54
2021/12/02 03:27:24;;;;;;;0.70;0.40;;;2.10;99.90;;;;;;5100808;28;20047;-53
2021/12/02 03:29:49;;;;;;;1.83;0.50;;;2.10;99.90;;;;;;5100959;28;20055;-54
2021/12/02 03:32:15;;;;;;;3.17;0.52;;;2.00;99.90;;;;;;5100952;28;20040;-55
2021/12/02 03:34:41;;;;;;;2.95;0.40;;;2.00;99.90;;;;;;5100789;28;20050;-52
2021/12/02 03:37:08;;;;;;;6.35;1.95;;;2.00;99.90;;;;;;5100759;28;20111;-54
2021/12/02 03:39:34;;;;;;;1.55;0.40;;;1.90;99.90;;;;;;5100172;28;20052;-53
2021/12/02 03:42:00;;;;;;;2.80;0.60;;;2.10;99.90;;;;;;5100991;28;20042;-54
2021/12/02 03:44:26;;;;;;;3.78;0.60;;;2.00;99.90;;;;;;5100389;28;20055;-54
2021/12/02 03:46:52;;;;;;;2.35;0.50;;;2.00;99.90;;;;;;5100597;28;20246;-55
2021/12/02 03:49:19;;;;;;;2.60;0.50;;;2.10;99.90;;;;;;5100881;28;20050;-54
2021/12/02 03:51:44;;;;;;;5.53;0.80;;;2.00;99.90;;;;;;5091775;28;20052;-54
2021/12/02 03:54:10;;;;;;;2.08;0.55;;;2.00;99.90;;;;;;5080708;28;20041;-53
2021/12/02 03:56:36;;;;;;;2.05;0.50;;;2.00;99.90;;;;;;5079304;28;20036;-54
2021/12/02 03:59:03;;;;;;;3.50;0.73;;;1.90;99.90;;;;;;5080749;28;20143;-55
2021/12/02 04:01:28;;;;;;;1.25;0.60;;;1.80;99.90;;;;;;5080026;28;20087;-52
2021/12/02 04:03:54;;;;;;;2.33;0.57;;;1.80;99.90;;;;;;5080186;28;20044;-53
2021/12/02 04:06:20;;;;;;;2.53;0.80;;;2.00;99.90;;;;;;5078927;28;20045;-54
2021/12/02 04:08:50;;;;;;;3.65;0.50;;;1.90;99.90;;;;;;5079990;28;20070;-54
2021/12/02 04:11:36;;;;;;;5.38;0.70;;;2.00;99.90;;;;;;5080530;28;20090;-57
2021/12/02 04:16:54;;;;;;;2.17;0.50;;;1.90;99.90;;;;;;5080082;28;20047;-53
2021/12/02 04:19:21;;;;;;;4.38;1.20;;;2.00;99.90;;;;;;5080460;28;20037;-52
2021/12/02 04:21:47;;;;;;;4.47;0.65;;;1.90;99.90;;;;;;5079908;28;20036;-53
2021/12/02 04:24:13;;;;;;;1.40;0.50;;;1.60;99.90;;;;;;5080235;28;20110;-54
2021/12/02 04:26:40;;;;;;;2.30;0.70;;;1.80;99.90;;;;;;5079585;28;20527;-51
2021/12/02 04:29:06;;;;;;;3.63;0.70;;;1.80;99.90;;;;;;5080402;28;20097;-53
2021/12/02 04:31:32;;;;;;;5.00;0.75;;;1.70;99.90;;;;;;5078266;28;20056;-54
2021/12/02 04:33:57;;;;;;;6.13;0.80;;;1.80;99.90;;;;;;5079818;28;20243;-53
2021/12/02 04:36:23;;;;;;;4.45;0.63;;;1.80;99.90;;;;;;5079971;28;20059;-52
2021/12/02 04:38:49;;;;;;;6.93;0.80;;;1.90;99.90;;;;;;5079212;28;20575;-53
2021/12/02 04:41:17;;;;;;;3.03;0.75;;;2.10;99.90;;;;;;5080176;28;20082;-53
2021/12/02 04:43:42;;;;;;;5.40;0.70;;;2.20;99.90;;;;;;5077729;28;20044;-51
2021/12/02 04:46:08;;;;;;;4.30;0.68;;;2.20;99.90;;;;;;5080126;28;20036;-54
2021/12/02 04:48:34;;;;;;;2.95;0.70;;;2.30;99.90;;;;;;5079590;28;20041;-53
2021/12/02 04:51:00;;;;;;;5.50;0.80;;;2.30;99.90;;;;;;5081788;28;20075;-54
2021/12/02 04:53:25;;;;;;;2.50;0.73;;;2.30;99.90;;;;;;5099991;28;20044;-54
2021/12/02 04:55:51;;;;;;;4.05;0.70;;;2.30;99.90;;;;;;5099779;28;20040;-54
2021/12/02 04:58:17;;;;;;;4.03;0.80;;;2.40;99.90;;;;;;5100356;28;20036;-53
2021/12/02 05:00:43;;;;;;;2.38;0.60;;;2.30;99.90;;;;;;5099447;28;20040;-54
2021/12/02 05:03:09;;;;;;;4.63;0.98;;;2.40;99.90;;;;;;5099968;28;20071;-54
2021/12/02 05:05:34;;;;;;;2.88;0.70;;;2.30;99.90;;;;;;5099700;28;20036;-51
2021/12/02 05:08:03;;;;;;;4.78;1.02;;;2.30;99.90;;;;;;5099568;28;20036;-53
2021/12/02 05:10:28;;;;;;;2.88;0.70;;;2.40;99.90;;;;;;5103642;28;20076;-57
2021/12/02 05:12:54;;;;;;;2.15;0.55;;;2.40;99.90;;;;;;5103132;28;20437;-56
2021/12/02 05:15:20;;;;;;;3.65;0.63;;;2.20;99.90;;;;;;5103960;28;20058;-57
2021/12/02 05:17:46;;;;;;;2.88;1.30;;;2.10;99.90;;;;;;5103030;28;20086;-56
2021/12/02 05:20:12;;;;;;;3.25;0.70;;;2.00;99.90;;;;;;5085521;28;20075;-56
2021/12/02 05:22:38;;;;;;;4.32;0.70;;;2.00;99.90;;;;;;5102932;28;20437;-55
2021/12/02 05:25:04;;;;;;;4.32;0.70;;;1.80;99.90;;;;;;5103398;28;20060;-57
2021/12/02 05:27:30;;;;;;;4.18;0.75;;;1.80;99.90;;;;;;5103374;28;20054;-57
2021/12/02 05:29:56;;;;;;;2.55;0.70;;;1.90;99.90;;;;;;5103118;28;20119;-56
2021/12/02 05:32:21;;;;;;;7.03;0.93;;;2.00;99.90;;;;;;5103260;28;20044;-56
2021/12/02 05:34:49;;;;;;;4.22;0.70;;;1.90;99.90;;;;;;5102780;28;20087;-53
2021/12/02 05:37:16;;;;;;;4.50;0.88;;;1.80;99.90;;;;;;5102747;28;20052;-55
2021/12/02 05:39:43;;;;;;;6.13;0.73;;;2.00;99.90;;;;;;5102479;28;20111;-54
2021/12/02 05:42:09;;;;;;;5.25;0.77;;;2.00;99.90;;;;;;5102853;28;20804;-54
2021/12/02 05:44:35;;;;;;;6.05;1.38;;;2.00;99.90;;;;;;5102740;28;20055;-54
2021/12/02 05:47:00;;;;;;;7.47;1.25;;;2.10;99.90;;;;;;5102607;28;20484;-54
2021/12/02 05:49:27;;;;;;;6.35;0.80;;;2.10;99.90;;;;;;5102941;28;20048;-55
2021/12/02 05:51:53;;;;;;;5.70;1.05;;;2.10;99.90;;;;;;5092827;28;20199;-56
2021/12/02 05:54:19;;;;;;;4.03;0.68;;;2.00;99.90;;;;;;5082713;28;20120;-56
2021/12/02 05:56:45;;;;;;;3.92;0.63;;;2.00;99.90;;;;;;5082055;28;20044;-55
2021/12/02 05:59:10;;;;;;;4.38;0.70;;;2.10;99.90;;;;;;5082475;28;20101;-55
2021/12/02 06:01:41;;;;;;;2.97;0.60;;;2.20;99.90;;;;;;5082294;28;20047;-53
2021/12/02 06:04:07;;;;;;;3.78;0.68;;;2.20;99.90;;;;;;5080699;28;20061;-53
2021/12/02 06:06:33;;;;;;;3.50;0.60;;;2.30;99.90;;;;;;5082395;28;20514;-54
2021/12/02 06:08:58;;;;;;;5.63;0.88;;;2.30;99.90;;;;;;5081852;28;20048;-53
2021/12/02 06:11:24;;;;;;;4.90;0.85;;;2.30;99.90;;;;;;5082304;28;20100;-55
2021/12/02 06:13:50;;;;;;;4.18;0.60;;;2.30;99.90;;;;;;5079946;28;20508;-55
2021/12/02 06:16:15;;;;;;;2.25;0.88;;;2.30;99.90;;;;;;5082024;28;20072;-57
2021/12/02 06:18:41;;;;;;;4.20;0.82;;;2.30;99.90;;;;;;5081516;28;20048;-56
2021/12/02 06:21:07;;;;;;;8.40;0.88;;;2.20;99.90;;;;;;5081558;28;20051;-55
2021/12/02 06:23:33;;;;;;;1.27;0.60;;;2.20;99.90;;;;;;5082014;28;20397;-55
2021/12/02 06:25:58;;;;;;;1.55;0.95;;;2.10;99.90;;;;;;5080138;28;20040;-54
2021/12/02 06:28:24;;;;;;;3.83;0.70;;;2.10;99.90;;;;;;5081589;28;20548;-55
2021/12/02 06:30:50;;;;;;;2.95;0.63;;;2.10;99.90;;;;;;5081185;28;20052;-53
2021/12/02 06:33:15;;;;;;;2.45;0.47;;;2.20;99.90;;;;;;5081766;28;20120;-54
2021/12/02 06:35:42;;;;;;;3.50;0.77;;;2.10;99.90;;;;;;5081489;28;20060;-55
2021/12/02 06:38:08;;;;;;;1.90;0.82;;;2.20;99.90;;;;;;5081388;28;20075;-54
2021/12/02 06:40:34;;;;;;;2.10;0.60;;;2.10;99.90;;;;;;5081794;28;20500;-55
2021/12/02 06:43:01;;;;;;;4.60;1.15;;;2.30;99.90;;;;;;5080884;28;20044;-54
2021/12/02 06:45:27;;;;;;;3.40;0.80;;;2.30;99.90;;;;;;5081709;28;20036;-54
2021/12/02 06:47:58;;;;;;;3.90;0.90;;;2.20;99.90;;;;;;5080864;28;20051;-55
2021/12/02 06:50:24;;;;;;;5.75;1.67;;;2.10;99.90;;;;;;5081316;28;20098;-56
2021/12/02 06:52:51;;;;;;;7.68;1.45;;;2.20;99.90;;;;;;5080194;28;20052;-54
2021/12/02 06:55:18;;;;;;;5.05;0.75;;;2.30;99.90;;;;;;5101388;28;20032;-55
2021/12/02 06:57:44;;;;;;;4.80;0.90;;;2.30;99.90;;;;;;5101833;28;20044;-53
2021/12/02 07:00:13;;;;;;;3.63;0.70;;;2.30;99.90;;;;;;5101266;28;20040;-54
2021/12/02 07:02:40;;;;;;;5.55;1.17;;;2.30;99.90;;;;;;5101595;28;20119;-55
2021/12/02 07:05:08;;;;;;;8.82;1.42;;;2.30;99.90;;;;;;5100973;28;20032;-54
2021/12/02 07:07:37;;;;;;;9.90;2.13;;;2.30;99.90;;;;;;5100080;28;20054;-55
2021/12/02 07:10:09;;;;;;;21.23;2.50;;;2.30;99.90;;;;;;5099509;28;20130;-54
2021/12/02 07:12:36;;;;;;;20.30;2.10;;;2.20;99.90;;;;;;5100983;28;20044;-54
2021/12/02 07:15:14;;;;;;;5.35;0.88;;;2.10;99.90;;;;;;5101130;28;20531;-55
2021/12/02 07:17:40;;;;;;;6.45;1.20;;;2.10;99.90;;;;;;5100889;28;20040;-55
2021/12/02 07:20:07;;;;;;;5.82;0.95;;;2.10;99.90;;;;;;5101321;28;20123;-57
2021/12/02 07:22:32;;;;;;;6.10;1.15;;;2.10;99.90;;;;;;5100473;28;20044;-55
2021/12/02 07:24:58;;;;;;;2.88;1.00;;;2.10;99.90;;;;;;5100971;28;20064;-55
2021/12/02 07:27:24;;;;;;;4.68;0.90;;;2.20;99.90;;;;;;5100910;28;20036;-54
2021/12/02 07:29:50;;;;;;;5.28;1.33;;;2.10;99.90;;;;;;5100433;28;20090;-54
2021/12/02 07:32:16;;;;;;;5.40;0.90;;;2.30;99.90;;;;;;5100464;28;20044;-50
2021/12/02 07:34:44;;;;;;;3.70;0.70;;;2.20;99.90;;;;;;5100493;28;20035;-54
2021/12/02 07:37:16;;;;;;;3.38;0.88;;;2.20;99.90;;;;;;5100978;28;20048;-55
2021/12/02 07:39:43;;;;;;;3.22;0.88;;;2.20;99.90;;;;;;5100510;28;20062;-53
2021/12/02 07:42:09;;;;;;;5.22;1.10;;;2.20;99.90;;;;;;5100658;28;20044;-54
2021/12/02 07:44:35;;;;;;;7.75;1.00;;;2.20;99.90;;;;;;5100606;28;20044;-55
2021/12/02 07:47:03;;;;;;;5.75;1.45;;;2.20;99.90;;;;;;5100459;28;20098;-54
2021/12/02 07:49:29;;;;;;;8.48;1.67;;;2.10;99.90;;;;;;5100660;28;20047;-55
2021/12/02 07:51:59;;;;;;;7.13;1.77;;;2.10;99.90;;;;;;5090497;28;20075;-54
2021/12/02 07:54:27;;;;;;;9.48;2.50;;;2.10;99.90;;;;;;5080567;28;20455;-53
2021/12/02 07:56:53;;;;;;;14.63;2.80;;;2.10;99.90;;;;;;5079788;28;20053;-55
2021/12/02 07:59:20;;;;;;;8.15;2.78;;;2.10;99.90;;;;;;5080291;28;20044;-56
2021/12/02 08:01:47;;;;;;;10.77;2.83;;;2.10;99.90;;;;;;5080339;28;20044;-54
2021/12/02 08:04:13;;;;;;;12.02;3.22;;;2.00;99.90;;;;;;5080148;28;20056;-54
2021/12/02 08:06:38;;;;;;;11.68;3.80;;;2.00;99.90;;;;;;5080505;28;20041;-54
2021/12/02 08:09:06;;;;;;;8.85;3.03;;;2.10;99.90;;;;;;5078474;28;20058;-54
2021/12/02 08:11:32;;;;;;;7.70;3.22;;;2.10;99.90;;;;;;5080328;28;20055;-55
2021/12/02 08:13:59;;;;;;;9.25;3.22;;;2.20;99.90;;;;;;5079674;28;20041;-54
2021/12/02 08:16:25;;;;;;;11.52;2.92;;;2.20;99.90;;;;;;5080131;28;20068;-55
2021/12/02 08:18:50;;;;;;;7.45;2.60;;;2.20;99.90;;;;;;5080277;28;20123;-55
2021/12/02 08:21:16;;;;;;;7.32;2.58;;;2.30;99.90;;;;;;5079888;28;20543;-55
2021/12/02 08:23:42;;;;;;;7.35;2.33;;;2.40;99.90;;;;;;5080326;28;20060;-54
2021/12/02 08:26:08;;;;;;;6.45;2.28;;;2.30;99.90;;;;;;5079758;28;20032;-55
2021/12/02 08:28:33;;;;;;;5.28;1.98;;;2.50;99.90;;;;;;5080090;28;20098;-55
2021/12/02 08:30:59;;;;;;;5.30;1.88;;;2.60;99.90;;;;;;5077797;28;20055;-56
2021/12/02 08:33:25;;;;;;;5.63;1.90;;;2.50;99.90;;;;;;5080190;28;20044;-55
2021/12/02 08:35:51;;;;;;;5.88;1.48;;;2.50;99.90;;;;;;5079844;28;20817;-54
2021/12/02 08:38:19;;;;;;;4.53;1.17;;;2.40;99.90;;;;;;5079598;28;20057;-54
2021/12/02 08:40:49;;;;;;;5.75;1.50;;;2.30;99.90;;;;;;5078948;28;20048;-55
2021/12/02 08:43:15;;;;;;;5.53;1.10;;;2.40;99.90;;;;;;5081311;28;20140;-54
2021/12/02 08:45:43;;;;;;;3.75;1.65;;;2.30;99.90;;;;;;5083736;28;20071;-53
2021/12/02 08:48:10;;;;;;;9.13;1.20;;;2.10;99.90;;;;;;5083651;28;20079;-55
2021/12/02 08:50:37;;;;;;;7.13;1.48;;;2.10;99.90;;;;;;5083699;28;20063;-55
2021/12/02 08:53:04;;;;;;;3.05;0.98;;;2.10;99.90;;;;;;5102683;28;20083;-55
2021/12/02 08:55:30;;;;;;;7.25;1.30;;;2.10;99.90;;;;;;5103721;28;20050;-55
2021/12/02 08:57:57;;;;;;;4.38;0.90;;;2.20;99.90;;;;;;5104272;28;20048;-55
2021/12/02 09:00:27;;;;;;;4.80;1.00;;;2.20;99.90;;;;;;5103423;28;20376;-55
2021/12/02 09:02:54;;;;;;;3.40;1.30;;;2.40;99.90;;;;;;5104081;28;20117;-54
2021/12/02 09:05:20;;;;;;;8.23;1.40;;;2.40;99.90;;;;;;5103330;28;20040;-54
2021/12/02 09:07:46;;;;;;;5.22;1.30;;;2.40;99.90;;;;;;5103727;28;20047;-54
2021/12/02 09:10:12;;;;;;;4.97;1.40;;;2.40;99.90;;;;;;5103588;28;20054;-54
2021/12/02 09:12:37;;;;;;;4.07;1.17;;;2.40;99.90;;;;;;5103204;28;20036;-54
2021/12/02 09:15:08;;;;;;;5.47;1.30;;;2.40;99.90;;;;;;5104001;28;20051;-55
2021/12/02 09:17:33;;;;;;;5.25;1.05;;;2.40;99.90;;;;;;5103160;28;20429;-51
2021/12/02 09:19:59;;;;;;;4.65;1.00;;;2.60;99.90;;;;;;5103745;28;20043;-54
2021/12/02 09:22:25;;;;;;;6.60;1.10;;;2.50;99.90;;;;;;5103062;28;20536;-54
2021/12/02 09:24:50;;;;;;;10.30;2.08;;;2.40;99.90;;;;;;5103664;28;20052;-55
2021/12/02 09:27:16;;;;;;;8.95;1.60;;;2.50;99.90;;;;;;5103273;28;20051;-50
2021/12/02 09:29:42;;;;;;;11.98;1.77;;;2.60;99.90;;;;;;5103130;28;20076;-54
2021/12/02 09:32:08;;;;;;;7.03;1.95;;;2.60;99.90;;;;;;5103411;28;20563;-55
2021/12/02 09:34:34;;;;;;;5.85;2.10;;;2.70;99.90;;;;;;5102837;28;20100;-55
2021/12/02 09:36:59;;;;;;;6.20;1.90;;;2.80;99.90;;;;;;5103032;28;20056;-54
2021/12/02 09:39:33;;;;;;;3.65;1.27;;;2.90;99.90;;;;;;5102570;28;20046;-56
2021/12/02 09:42:00;;;;;;;6.50;1.20;;;2.90;99.90;;;;;;5103285;28;20400;-55
2021/12/02 09:44:27;;;;;;;5.00;1.65;;;3.10;99.90;;;;;;5102701;28;20032;-55
2021/12/02 09:46:53;;;;;;;4.50;0.88;;;3.00;99.90;;;;;;5102987;28;20048;-57
2021/12/02 09:49:19;;;;;;;3.13;0.60;;;2.90;99.90;;;;;;5103004;28;20135;-55
2021/12/02 09:51:59;;;;;;;2.92;0.52;;;2.80;99.90;;;;;;5093906;28;20424;-55
2021/12/02 09:54:52;;;;;;;3.63;1.20;;;2.70;99.90;;;;;;5081927;28;20036;-54
2021/12/02 09:57:22;;;;;;;3.97;0.63;;;2.70;99.90;;;;;;5082427;28;20489;-55
2021/12/02 09:59:50;;;;;;;3.13;0.70;;;2.70;99.90;;;;;;5082037;28;20056;-53
2021/12/02 10:02:18;;;;;;;2.42;0.80;;;2.70;99.90;;;;;;5082773;28;20171;-54
2021/12/02 10:04:59;;;;;;;3.40;0.85;;;2.70;99.90;;;;;;5081986;28;20094;-54
2021/12/02 10:10:04;;;;;;;4.38;1.02;;;2.70;99.90;;;;;;5082021;28;20053;-54
2021/12/02 10:12:33;;;;;;;3.83;0.90;;;2.80;99.90;;;;;;5082011;28;20066;-54
2021/12/02 10:15:01;;;;;;;3.67;0.82;;;2.80;99.90;;;;;;5082472;28;20080;-54
2021/12/02 10:17:36;;;;;;;3.83;0.90;;;2.70;99.90;;;;;;5081815;28;20119;-55
2021/12/02 10:20:29;;;;;;;3.05;1.00;;;2.60;99.90;;;;;;5081019;28;20123;-53
2021/12/02 10:23:18;;;;;;;2.63;0.77;;;2.50;99.90;;;;;;5081741;28;20041;-56
2021/12/02 10:25:49;;;;;;;4.95;1.00;;;2.60;99.90;;;;;;5081647;28;20052;-54
2021/12/02 10:28:18;;;;;;;4.50;1.00;;;2.50;99.90;;;;;;5082219;28;20762;-54
2021/12/02 10:30:56;;;;;;;4.38;1.00;;;2.60;99.90;;;;;;5081278;28;20051;-56
2021/12/02 10:33:51;;;;;;;7.80;1.13;;;2.50;99.90;;;;;;5081844;28;20093;-55
2021/12/02 10:36:33;;;;;;;2.78;0.90;;;2.40;99.90;;;;;;5078362;28;20057;-52
2021/12/02 10:39:08;;;;;;;2.33;0.77;;;2.50;99.90;;;;;;5080849;28;20052;-50
2021/12/02 10:41:34;;;;;;;3.58;1.05;;;2.50;99.90;;;;;;5081827;28;20101;-54
2021/12/02 10:44:30;;;;;;;8.32;2.03;;;2.50;99.90;;;;;;5081011;28;20048;-53
2021/12/02 10:47:04;;;;;;;4.82;1.10;;;2.50;99.90;;;;;;5081169;28;20036;-53
2021/12/02 10:49:49;;;;;;;4.40;1.05;;;2.50;99.90;;;;;;5081529;28;20079;-54
2021/12/02 10:52:17;;;;;;;3.78;1.20;;;2.50;99.90;;;;;;5093473;28;20044;-54
2021/12/02 10:54:50;;;;;;;3.08;1.10;;;2.50;99.90;;;;;;5101889;28;20051;-54
2021/12/02 10:57:20;;;;;;;4.22;1.20;;;2.70;99.90;;;;;;5101573;28;20075;-53
2021/12/02 10:59:50;;;;;;;2.60;1.08;;;2.70;99.90;;;;;;5101511;28;20044;-55
2021/12/02 11:02:18;;;;;;;3.10;0.90;;;2.60;99.90;;;;;;5100287;28;20063;-55
2021/12/02 11:04:46;;;;;;;3.10;0.90;;;2.60;99.90;;;;;;5101200;28;20044;-54
2021/12/02 11:07:24;;;;;;;3.35;1.02;;;2.50;99.90;;;;;;5100510;28;20256;-55
2021/12/02 11:09:52;;;;;;;2.63;0.70;;;2.50;99.90;;;;;;5101035;28;20058;-55
2021/12/02 11:12:27;;;;;;;5.18;1.02;;;2.50;99.90;;;;;;5100944;28;20123;-55
2021/12/02 11:15:02;;;;;;;4.05;0.80;;;2.30;99.90;;;;;;5101363;28;20062;-56
2021/12/02 11:17:31;;;;;;;2.70;0.80;;;2.10;99.90;;;;;;5100909;28;20028;-54
2021/12/02 11:20:02;;;;;;;3.53;0.90;;;2.10;99.90;;;;;;5101298;28;20047;-56
2021/12/02 11:22:29;;;;;;;3.40;0.80;;;2.00;99.90;;;;;;5100709;28;20040;-54
2021/12/02 11:24:56;;;;;;;2.95;1.08;;;1.80;99.90;;;;;;5101093;28;20067;-53
2021/12/02 11:27:24;;;;;;;2.42;0.77;;;1.80;99.90;;;;;;5101067;28;20070;-55
2021/12/02 11:29:53;;;;;;;3.40;0.85;;;1.70;99.90;;;;;;5100566;28;20152;-55
2021/12/02 11:32:27;;;;;;;2.30;0.65;;;1.70;99.90;;;;;;5099995;28;20052;-54
2021/12/02 11:35:06;;;;;;;1.85;0.65;;;1.60;99.90;;;;;;5100261;28;20051;-54
2021/12/02 11:37:36;;;;;;;2.30;0.70;;;1.60;99.90;;;;;;5099252;28;20056;-55
2021/12/02 11:40:21;;;;;;;2.90;0.70;;;1.60;99.90;;;;;;5100820;28;20055;-54
2021/12/02 11:42:49;;;;;;;2.42;1.15;;;1.60;99.90;;;;;;5100244;28;20119;-55
2021/12/02 11:45:17;;;;;;;1.67;0.70;;;1.50;99.90;;;;;;5101125;28;20044;-54
2021/12/02 11:47:44;;;;;;;1.30;0.57;;;1.60;99.90;;;;;;5100303;28;20135;-54
2021/12/02 11:50:12;;;;;;;2.40;0.60;;;1.60;99.90;;;;;;5100681;28;20097;-56
2021/12/02 11:52:40;;;;;;;2.42;0.70;;;1.50;99.90;;;;;;5083264;28;20498;-53
2021/12/02 11:55:10;;;;;;;5.25;1.00;;;1.50;99.90;;;;;;5079982;28;20038;-55
2021/12/02 11:57:36;;;;;;;2.90;1.13;;;1.60;99.90;;;;;;5080550;28;20062;-55
2021/12/02 12:00:11;;;;;;;3.30;0.77;;;1.70;99.90;;;;;;5079837;28;20068;-53
2021/12/02 12:02:45;;;;;;;4.72;2.05;;;1.80;99.90;;;;;;5080411;28;20047;-53
2021/12/02 12:05:13;;;;;;;3.55;0.90;;;1.70;99.90;;;;;;5079735;28;20052;-52
2021/12/02 12:07:46;;;;;;;3.95;0.95;;;1.80;99.90;;;;;;5080309;28;20412;-54
2021/12/02 12:10:32;;;;;;;4.20;1.10;;;2.00;99.90;;;;;;5078930;28;20147;-51
2021/12/02 12:13:16;;;;;;;5.57;1.23;;;2.20;99.90;;;;;;5079530;28;20066;-54
2021/12/02 12:15:58;;;;;;;3.30;1.10;;;2.50;99.90;;;;;;5080335;28;20049;-53
2021/12/02 12:18:24;;;;;;;3.00;0.80;;;2.70;99.90;;;;;;5082131;28;20044;-54
2021/12/02 12:20:53;;;;;;;4.88;0.90;;;2.80;99.90;;;;;;5084075;28;20052;-50
2021/12/02 12:23:31;;;;;;;2.25;0.70;;;2.60;99.90;;;;;;5084422;28;20145;-54
2021/12/02 12:26:20;;;;;;;4.60;1.00;;;2.60;99.90;;;;;;5083914;28;20041;-55
2021/12/02 12:29:16;;;;;;;3.63;0.60;;;2.50;99.90;;;;;;5084359;28;20060;-51
2021/12/02 12:31:52;;;;;;;2.83;0.70;;;2.50;99.90;;;;;;5084194;28;20173;-53
2021/12/02 12:34:30;;;;;;;4.60;0.90;;;2.60;99.90;;;;;;5083697;28;20293;-53
2021/12/02 12:37:36;;;;;;;4.00;0.77;;;2.70;99.90;;;;;;5083853;28;20052;-56
2021/12/02 12:40:12;;;;;;;3.10;0.70;;;2.60;99.90;;;;;;5080378;28;20048;-55
2021/12/02 12:42:40;;;;;;;2.22;0.70;;;2.70;99.90;;;;;;5083467;28;20053;-52
2021/12/02 12:45:09;;;;;;;1.38;0.63;;;2.70;99.90;;;;;;5084035;28;20603;-54
2021/12/02 12:47:43;;;;;;;2.13;0.50;;;2.70;99.90;;;;;;5083530;28;20041;-54
2021/12/02 12:50:29;;;;;;;3.75;1.20;;;2.70;99.90;;;;;;5082159;28;20071;-53
2021/12/02 12:53:07;;;;;;;3.03;0.70;;;2.70;99.90;;;;;;5101209;28;20139;-54
2021/12/02 12:55:35;;;;;;;4.72;1.05;;;2.80;99.90;;;;;;5103572;28;20100;-55
2021/12/02 12:58:12;;;;;;;3.63;1.02;;;2.80;99.90;;;;;;5104268;28;20036;-53
2021/12/02 13:00:39;;;;;;;4.07;0.90;;;2.70;99.90;;;;;;5103269;28;20095;-53
2021/12/02 13:03:12;;;;;;;2.38;1.13;;;2.80;99.90;;;;;;5102348;28;20039;-55
2021/12/02 13:05:54;;;;;;;1.40;0.57;;;2.70;99.90;;;;;;5103603;28;20048;-54
2021/12/02 13:08:26;;;;;;;1.60;0.50;;;2.90;99.90;;;;;;5103385;28;20051;-54
2021/12/02 13:11:00;;;;;;;2.20;0.50;;;2.90;99.90;;;;;;5103858;28;20304;-56
2021/12/02 13:13:33;;;;;;;2.05;0.70;;;2.90;99.90;;;;;;5102961;28;20098;-54
2021/12/02 13:16:17;;;;;;;4.15;0.68;;;3.00;99.90;;;;;;5103507;28;20553;-54
2021/12/02 13:18:47;;;;;;;3.03;0.80;;;3.10;99.90;;;;;;5103672;28;20077;-55
2021/12/02 13:21:28;;;;;;;2.42;0.65;;;3.20;99.90;;;;;;5102982;28;20492;-53
2021/12/02 13:24:08;;;;;;;3.30;0.65;;;3.30;99.90;;;;;;5103397;28;20035;-54